sensor_id;sensor_type;location;lat;lon;timestamp;temperature;humidity
16347;DHT22;8283;48.504;13.734;2024-03-07T00:00:28;11.10;65.10
16347;DHT22;8283;48.504;13.734;2024-03-07T00:02:49;11.00;65.00
16347;DHT22;8283;48.504;13.734;2024-03-07T00:05:09;11.00;64.90
16347;DHT22;8283;48.504;13.734;2024-03-07T00:07:28;11.20;64.90
16347;DHT22;8283;48.504;13.734;2024-03-07T00:09:47;11.00;64.70
16347;DHT22;8283;48.504;13.734;2024-03-07T00:12:07;10.90;64.70
16347;DHT22;8283;48.504;13.734;2024-03-07T00:14:27;11.00;64.80
16347;DHT22;8283;48.504;13.734;2024-03-07T00:16:46;10.90;64.70
16347;DHT22;8283;48.504;13.734;2024-03-07T00:19:06;10.90;64.70
16347;DHT22;8283;48.504;13.734;2024-03-07T00:21:25;10.90;64.70
16347;DHT22;8283;48.504;13.734;2024-03-07T00:23:47;10.90;64.70
16347;DHT22;8283;48.504;13.734;2024-03-07T00:26:07;10.90;64.70
16347;DHT22;8283;48.504;13.734;2024-03-07T00:28:27;10.90;64.70
16347;DHT22;8283;48.504;13.734;2024-03-07T00:30:51;10.90;64.60
16347;DHT22;8283;48.504;13.734;2024-03-07T00:33:10;10.90;64.60
16347;DHT22;8283;48.504;13.734;2024-03-07T00:35:29;10.80;64.50
16347;DHT22;8283;48.504;13.734;2024-03-07T00:37:49;10.80;64.30
16347;DHT22;8283;48.504;13.734;2024-03-07T00:40:08;10.80;64.10
16347;DHT22;8283;48.504;13.734;2024-03-07T00:42:29;10.70;63.70
16347;DHT22;8283;48.504;13.734;2024-03-07T00:44:49;10.60;63.60
16347;DHT22;8283;48.504;13.734;2024-03-07T00:47:08;10.50;63.30
16347;DHT22;8283;48.504;13.734;2024-03-07T00:49:29;10.50;63.10
16347;DHT22;8283;48.504;13.734;2024-03-07T00:51:49;10.30;62.80
16347;DHT22;8283;48.504;13.734;2024-03-07T00:54:09;10.20;62.90
16347;DHT22;8283;48.504;13.734;2024-03-07T00:56:28;10.20;63.20
16347;DHT22;8283;48.504;13.734;2024-03-07T00:58:48;10.10;63.20
16347;DHT22;8283;48.504;13.734;2024-03-07T01:01:08;10.00;63.20
16347;DHT22;8283;48.504;13.734;2024-03-07T01:03:27;10.00;63.30
16347;DHT22;8283;48.504;13.734;2024-03-07T01:05:47;9.90;63.30
16347;DHT22;8283;48.504;13.734;2024-03-07T01:08:07;9.80;63.10
16347;DHT22;8283;48.504;13.734;2024-03-07T01:10:26;9.80;63.20
16347;DHT22;8283;48.504;13.734;2024-03-07T01:12:45;9.70;63.20
16347;DHT22;8283;48.504;13.734;2024-03-07T01:15:05;9.70;63.30
16347;DHT22;8283;48.504;13.734;2024-03-07T01:17:25;9.60;63.30
16347;DHT22;8283;48.504;13.734;2024-03-07T01:19:44;9.50;63.40
16347;DHT22;8283;48.504;13.734;2024-03-07T01:22:03;9.50;63.40
16347;DHT22;8283;48.504;13.734;2024-03-07T01:24:23;9.40;63.40
16347;DHT22;8283;48.504;13.734;2024-03-07T01:26:42;9.30;63.50
16347;DHT22;8283;48.504;13.734;2024-03-07T01:29:01;9.20;63.50
16347;DHT22;8283;48.504;13.734;2024-03-07T01:31:24;9.10;63.50
16347;DHT22;8283;48.504;13.734;2024-03-07T01:33:43;9.10;63.60
16347;DHT22;8283;48.504;13.734;2024-03-07T01:36:03;9.00;63.60
16347;DHT22;8283;48.504;13.734;2024-03-07T01:38:24;8.90;63.60
16347;DHT22;8283;48.504;13.734;2024-03-07T01:40:44;8.80;63.60
16347;DHT22;8283;48.504;13.734;2024-03-07T01:43:04;8.70;63.50
16347;DHT22;8283;48.504;13.734;2024-03-07T01:45:25;8.60;63.70
16347;DHT22;8283;48.504;13.734;2024-03-07T01:47:44;8.10;63.30
16347;DHT22;8283;48.504;13.734;2024-03-07T01:50:04;8.40;63.60
16347;DHT22;8283;48.504;13.734;2024-03-07T01:52:25;8.30;63.60
16347;DHT22;8283;48.504;13.734;2024-03-07T01:54:46;8.20;63.80
16347;DHT22;8283;48.504;13.734;2024-03-07T01:57:06;8.10;63.90
16347;DHT22;8283;48.504;13.734;2024-03-07T01:59:26;8.00;64.00
16347;DHT22;8283;48.504;13.734;2024-03-07T02:01:45;8.00;64.20
16347;DHT22;8283;48.504;13.734;2024-03-07T02:04:06;7.90;64.20
16347;DHT22;8283;48.504;13.734;2024-03-07T02:06:27;7.90;64.40
16347;DHT22;8283;48.504;13.734;2024-03-07T02:08:47;7.80;64.40
16347;DHT22;8283;48.504;13.734;2024-03-07T02:11:07;7.80;64.50
16347;DHT22;8283;48.504;13.734;2024-03-07T02:13:28;7.80;64.60
16347;DHT22;8283;48.504;13.734;2024-03-07T02:15:48;7.70;64.50
16347;DHT22;8283;48.504;13.734;2024-03-07T02:18:07;7.70;64.60
16347;DHT22;8283;48.504;13.734;2024-03-07T02:20:28;7.60;64.60
16347;DHT22;8283;48.504;13.734;2024-03-07T02:22:47;7.60;64.70
16347;DHT22;8283;48.504;13.734;2024-03-07T02:25:06;7.50;64.80
16347;DHT22;8283;48.504;13.734;2024-03-07T02:27:26;7.50;64.80
16347;DHT22;8283;48.504;13.734;2024-03-07T02:29:46;7.50;64.80
16347;DHT22;8283;48.504;13.734;2024-03-07T02:32:06;7.40;64.70
16347;DHT22;8283;48.504;13.734;2024-03-07T02:34:25;7.40;64.70
16347;DHT22;8283;48.504;13.734;2024-03-07T02:36:46;7.30;65.00
16347;DHT22;8283;48.504;13.734;2024-03-07T02:39:05;7.20;65.00
16347;DHT22;8283;48.504;13.734;2024-03-07T02:41:25;7.20;65.20
16347;DHT22;8283;48.504;13.734;2024-03-07T02:43:45;7.10;65.00
16347;DHT22;8283;48.504;13.734;2024-03-07T02:46:04;7.10;65.00
16347;DHT22;8283;48.504;13.734;2024-03-07T02:48:24;7.10;65.10
16347;DHT22;8283;48.504;13.734;2024-03-07T02:50:43;7.00;65.10
16347;DHT22;8283;48.504;13.734;2024-03-07T02:53:04;7.00;65.20
16347;DHT22;8283;48.504;13.734;2024-03-07T02:55:23;6.90;65.20
16347;DHT22;8283;48.504;13.734;2024-03-07T02:57:42;6.90;65.30
16347;DHT22;8283;48.504;13.734;2024-03-07T03:00:05;6.90;65.30
16347;DHT22;8283;48.504;13.734;2024-03-07T03:02:32;6.80;65.30
16347;DHT22;8283;48.504;13.734;2024-03-07T03:04:52;6.80;65.20
16347;DHT22;8283;48.504;13.734;2024-03-07T03:07:11;7.60;65.70
16347;DHT22;8283;48.504;13.734;2024-03-07T03:09:30;6.60;65.20
16347;DHT22;8283;48.504;13.734;2024-03-07T03:11:50;6.60;65.40
16347;DHT22;8283;48.504;13.734;2024-03-07T03:14:11;6.50;65.50
16347;DHT22;8283;48.504;13.734;2024-03-07T03:16:30;6.50;65.60
16347;DHT22;8283;48.504;13.734;2024-03-07T03:18:50;6.40;65.70
16347;DHT22;8283;48.504;13.734;2024-03-07T03:21:10;6.40;65.70
16347;DHT22;8283;48.504;13.734;2024-03-07T03:23:29;6.40;65.80
16347;DHT22;8283;48.504;13.734;2024-03-07T03:25:48;6.40;65.90
16347;DHT22;8283;48.504;13.734;2024-03-07T03:28:09;6.30;66.10
16347;DHT22;8283;48.504;13.734;2024-03-07T03:30:29;6.30;66.10
16347;DHT22;8283;48.504;13.734;2024-03-07T03:32:48;6.30;66.20
16347;DHT22;8283;48.504;13.734;2024-03-07T03:35:08;6.30;66.20
16347;DHT22;8283;48.504;13.734;2024-03-07T03:37:32;6.30;66.30
16347;DHT22;8283;48.504;13.734;2024-03-07T03:39:51;6.30;66.40
16347;DHT22;8283;48.504;13.734;2024-03-07T03:42:10;6.30;66.40
16347;DHT22;8283;48.504;13.734;2024-03-07T03:44:30;6.30;66.50
16347;DHT22;8283;48.504;13.734;2024-03-07T03:46:49;6.30;66.70
16347;DHT22;8283;48.504;13.734;2024-03-07T03:49:09;6.30;66.80
16347;DHT22;8283;48.504;13.734;2024-03-07T03:51:28;6.40;67.00
16347;DHT22;8283;48.504;13.734;2024-03-07T03:53:47;6.40;67.00
16347;DHT22;8283;48.504;13.734;2024-03-07T03:56:10;6.40;67.10
16347;DHT22;8283;48.504;13.734;2024-03-07T03:58:32;6.40;67.10
16347;DHT22;8283;48.504;13.734;2024-03-07T04:00:51;6.40;67.70
16347;DHT22;8283;48.504;13.734;2024-03-07T04:03:10;6.50;67.10
16347;DHT22;8283;48.504;13.734;2024-03-07T04:05:30;6.40;67.00
16347;DHT22;8283;48.504;13.734;2024-03-07T04:07:49;6.50;67.30
16347;DHT22;8283;48.504;13.734;2024-03-07T04:10:10;6.50;67.50
16347;DHT22;8283;48.504;13.734;2024-03-07T04:12:30;6.50;67.50
16347;DHT22;8283;48.504;13.734;2024-03-07T04:14:49;6.50;67.60
16347;DHT22;8283;48.504;13.734;2024-03-07T04:17:11;6.60;67.60
16347;DHT22;8283;48.504;13.734;2024-03-07T04:19:35;6.60;67.80
16347;DHT22;8283;48.504;13.734;2024-03-07T04:21:54;6.60;67.70
16347;DHT22;8283;48.504;13.734;2024-03-07T04:24:14;6.60;67.60
16347;DHT22;8283;48.504;13.734;2024-03-07T04:26:33;6.70;67.80
16347;DHT22;8283;48.504;13.734;2024-03-07T04:28:52;6.70;67.90
16347;DHT22;8283;48.504;13.734;2024-03-07T04:31:12;6.70;67.90
16347;DHT22;8283;48.504;13.734;2024-03-07T04:33:32;6.80;68.00
16347;DHT22;8283;48.504;13.734;2024-03-07T04:35:52;6.80;68.00
16347;DHT22;8283;48.504;13.734;2024-03-07T04:38:11;6.80;67.90
16347;DHT22;8283;48.504;13.734;2024-03-07T04:40:34;6.80;67.90
16347;DHT22;8283;48.504;13.734;2024-03-07T04:42:53;6.90;68.00
16347;DHT22;8283;48.504;13.734;2024-03-07T04:45:13;6.90;68.00
16347;DHT22;8283;48.504;13.734;2024-03-07T04:47:32;6.90;68.00
16347;DHT22;8283;48.504;13.734;2024-03-07T04:49:51;6.90;67.90
16347;DHT22;8283;48.504;13.734;2024-03-07T04:52:11;6.90;67.90
16347;DHT22;8283;48.504;13.734;2024-03-07T04:54:31;6.90;67.90
16347;DHT22;8283;48.504;13.734;2024-03-07T04:56:54;6.90;67.90
16347;DHT22;8283;48.504;13.734;2024-03-07T04:59:13;6.90;67.90
16347;DHT22;8283;48.504;13.734;2024-03-07T05:01:33;6.90;67.90
16347;DHT22;8283;48.504;13.734;2024-03-07T05:03:52;6.90;68.00
16347;DHT22;8283;48.504;13.734;2024-03-07T05:06:12;6.90;68.00
16347;DHT22;8283;48.504;13.734;2024-03-07T05:08:32;6.90;68.00
16347;DHT22;8283;48.504;13.734;2024-03-07T05:10:52;6.90;68.00
16347;DHT22;8283;48.504;13.734;2024-03-07T05:13:11;6.90;68.10
16347;DHT22;8283;48.504;13.734;2024-03-07T05:15:31;7.00;68.20
16347;DHT22;8283;48.504;13.734;2024-03-07T05:17:50;7.00;68.10
16347;DHT22;8283;48.504;13.734;2024-03-07T05:20:09;7.00;68.30
16347;DHT22;8283;48.504;13.734;2024-03-07T05:22:29;7.00;68.20
16347;DHT22;8283;48.504;13.734;2024-03-07T05:24:49;7.00;68.20
16347;DHT22;8283;48.504;13.734;2024-03-07T05:27:09;7.00;68.30
16347;DHT22;8283;48.504;13.734;2024-03-07T05:29:32;7.00;68.30
16347;DHT22;8283;48.504;13.734;2024-03-07T05:31:54;7.00;68.30
16347;DHT22;8283;48.504;13.734;2024-03-07T05:34:19;7.00;68.30
16347;DHT22;8283;48.504;13.734;2024-03-07T05:36:38;6.60;68.00
16347;DHT22;8283;48.504;13.734;2024-03-07T05:39:05;7.00;68.30
16347;DHT22;8283;48.504;13.734;2024-03-07T05:41:30;7.00;68.30
16347;DHT22;8283;48.504;13.734;2024-03-07T05:43:50;7.00;68.30
16347;DHT22;8283;48.504;13.734;2024-03-07T05:46:10;7.00;68.40
16347;DHT22;8283;48.504;13.734;2024-03-07T05:48:30;7.00;68.40
16347;DHT22;8283;48.504;13.734;2024-03-07T05:50:49;7.00;68.50
16347;DHT22;8283;48.504;13.734;2024-03-07T05:53:08;7.10;68.60
16347;DHT22;8283;48.504;13.734;2024-03-07T05:55:28;7.10;68.60
16347;DHT22;8283;48.504;13.734;2024-03-07T05:57:47;7.10;68.60
16347;DHT22;8283;48.504;13.734;2024-03-07T06:00:07;7.10;68.70
16347;DHT22;8283;48.504;13.734;2024-03-07T06:02:31;7.10;68.80
16347;DHT22;8283;48.504;13.734;2024-03-07T06:04:50;7.20;68.90
16347;DHT22;8283;48.504;13.734;2024-03-07T06:07:10;7.20;68.90
16347;DHT22;8283;48.504;13.734;2024-03-07T06:09:30;7.20;68.90
16347;DHT22;8283;48.504;13.734;2024-03-07T06:11:49;7.30;68.90
16347;DHT22;8283;48.504;13.734;2024-03-07T06:14:09;7.30;68.90
16347;DHT22;8283;48.504;13.734;2024-03-07T06:16:35;7.30;68.90
16347;DHT22;8283;48.504;13.734;2024-03-07T06:18:54;7.30;69.00
16347;DHT22;8283;48.504;13.734;2024-03-07T06:21:13;7.30;69.00
16347;DHT22;8283;48.504;13.734;2024-03-07T06:23:34;7.30;69.00
16347;DHT22;8283;48.504;13.734;2024-03-07T06:25:53;7.30;69.10
16347;DHT22;8283;48.504;13.734;2024-03-07T06:28:14;7.30;69.10
16347;DHT22;8283;48.504;13.734;2024-03-07T06:30:37;7.40;70.20
16347;DHT22;8283;48.504;13.734;2024-03-07T06:32:56;7.40;69.00
16347;DHT22;8283;48.504;13.734;2024-03-07T06:35:16;7.40;69.00
16347;DHT22;8283;48.504;13.734;2024-03-07T06:37:36;7.40;69.20
16347;DHT22;8283;48.504;13.734;2024-03-07T06:39:55;7.40;69.20
16347;DHT22;8283;48.504;13.734;2024-03-07T06:42:14;7.40;69.30
16347;DHT22;8283;48.504;13.734;2024-03-07T06:44:34;7.50;69.40
16347;DHT22;8283;48.504;13.734;2024-03-07T06:46:53;7.50;69.50
16347;DHT22;8283;48.504;13.734;2024-03-07T06:49:12;7.50;69.60
16347;DHT22;8283;48.504;13.734;2024-03-07T06:51:31;7.50;69.70
16347;DHT22;8283;48.504;13.734;2024-03-07T06:53:52;7.50;69.80
16347;DHT22;8283;48.504;13.734;2024-03-07T06:56:11;7.50;69.90
16347;DHT22;8283;48.504;13.734;2024-03-07T06:58:31;7.60;70.00
16347;DHT22;8283;48.504;13.734;2024-03-07T07:00:51;7.60;70.00
16347;DHT22;8283;48.504;13.734;2024-03-07T07:03:12;6.90;69.60
16347;DHT22;8283;48.504;13.734;2024-03-07T07:05:33;7.60;71.40
16347;DHT22;8283;48.504;13.734;2024-03-07T07:07:53;7.60;70.00
16347;DHT22;8283;48.504;13.734;2024-03-07T07:10:13;7.60;70.00
16347;DHT22;8283;48.504;13.734;2024-03-07T07:12:37;7.60;70.10
16347;DHT22;8283;48.504;13.734;2024-03-07T07:14:56;7.70;70.30
16347;DHT22;8283;48.504;13.734;2024-03-07T07:17:15;7.70;70.40
16347;DHT22;8283;48.504;13.734;2024-03-07T07:19:35;7.70;70.40
16347;DHT22;8283;48.504;13.734;2024-03-07T07:21:54;7.70;70.50
16347;DHT22;8283;48.504;13.734;2024-03-07T07:24:13;7.80;70.70
16347;DHT22;8283;48.504;13.734;2024-03-07T07:26:33;7.80;70.70
16347;DHT22;8283;48.504;13.734;2024-03-07T07:28:53;7.80;70.60
16347;DHT22;8283;48.504;13.734;2024-03-07T07:31:13;7.80;70.60
16347;DHT22;8283;48.504;13.734;2024-03-07T07:33:32;7.80;70.80
16347;DHT22;8283;48.504;13.734;2024-03-07T07:35:52;7.80;70.80
16347;DHT22;8283;48.504;13.734;2024-03-07T07:38:12;7.90;71.00
16347;DHT22;8283;48.504;13.734;2024-03-07T07:40:33;7.90;71.10
16347;DHT22;8283;48.504;13.734;2024-03-07T07:42:55;7.90;71.20
16347;DHT22;8283;48.504;13.734;2024-03-07T07:45:15;7.90;71.50
16347;DHT22;8283;48.504;13.734;2024-03-07T07:47:35;8.00;71.50
16347;DHT22;8283;48.504;13.734;2024-03-07T07:49:56;8.00;71.50
16347;DHT22;8283;48.504;13.734;2024-03-07T07:52:16;8.10;71.50
16347;DHT22;8283;48.504;13.734;2024-03-07T07:54:35;8.10;71.50
16347;DHT22;8283;48.504;13.734;2024-03-07T07:56:54;8.10;71.50
16347;DHT22;8283;48.504;13.734;2024-03-07T07:59:14;8.20;71.70
16347;DHT22;8283;48.504;13.734;2024-03-07T08:01:33;8.20;71.70
16347;DHT22;8283;48.504;13.734;2024-03-07T08:03:53;8.20;71.70
16347;DHT22;8283;48.504;13.734;2024-03-07T08:06:13;8.20;71.80
16347;DHT22;8283;48.504;13.734;2024-03-07T08:08:32;8.30;71.90
16347;DHT22;8283;48.504;13.734;2024-03-07T08:10:52;8.30;72.00
16347;DHT22;8283;48.504;13.734;2024-03-07T08:13:11;8.40;72.00
16347;DHT22;8283;48.504;13.734;2024-03-07T08:15:32;8.50;72.00
16347;DHT22;8283;48.504;13.734;2024-03-07T08:17:52;8.50;72.10
16347;DHT22;8283;48.504;13.734;2024-03-07T08:20:16;8.60;72.10
16347;DHT22;8283;48.504;13.734;2024-03-07T08:22:42;8.60;72.10
16347;DHT22;8283;48.504;13.734;2024-03-07T08:25:02;8.70;72.20
16347;DHT22;8283;48.504;13.734;2024-03-07T08:27:28;8.70;72.20
16347;DHT22;8283;48.504;13.734;2024-03-07T08:29:49;8.80;72.20
16347;DHT22;8283;48.504;13.734;2024-03-07T08:32:08;8.80;72.20
16347;DHT22;8283;48.504;13.734;2024-03-07T08:34:28;8.90;72.20
16347;DHT22;8283;48.504;13.734;2024-03-07T08:36:47;8.90;72.20
16347;DHT22;8283;48.504;13.734;2024-03-07T08:39:07;9.00;72.30
16347;DHT22;8283;48.504;13.734;2024-03-07T08:41:30;9.00;72.40
16347;DHT22;8283;48.504;13.734;2024-03-07T08:43:50;9.10;72.50
16347;DHT22;8283;48.504;13.734;2024-03-07T08:46:10;9.20;72.50
16347;DHT22;8283;48.504;13.734;2024-03-07T08:48:31;9.20;73.20
16347;DHT22;8283;48.504;13.734;2024-03-07T08:50:50;10.20;73.10
16347;DHT22;8283;48.504;13.734;2024-03-07T08:53:09;9.40;72.60
16347;DHT22;8283;48.504;13.734;2024-03-07T08:55:28;9.40;72.40
16347;DHT22;8283;48.504;13.734;2024-03-07T08:57:47;9.40;72.30
16347;DHT22;8283;48.504;13.734;2024-03-07T09:00:08;9.50;72.30
16347;DHT22;8283;48.504;13.734;2024-03-07T09:02:30;9.60;72.30
16347;DHT22;8283;48.504;13.734;2024-03-07T09:04:49;9.60;72.30
16347;DHT22;8283;48.504;13.734;2024-03-07T09:07:09;9.70;72.30
16347;DHT22;8283;48.504;13.734;2024-03-07T09:09:29;9.70;72.30
16347;DHT22;8283;48.504;13.734;2024-03-07T09:11:48;9.80;72.30
16347;DHT22;8283;48.504;13.734;2024-03-07T09:14:07;9.90;72.30
16347;DHT22;8283;48.504;13.734;2024-03-07T09:16:28;10.00;72.30
16347;DHT22;8283;48.504;13.734;2024-03-07T09:18:48;10.00;72.20
16347;DHT22;8283;48.504;13.734;2024-03-07T09:21:07;10.10;72.10
16347;DHT22;8283;48.504;13.734;2024-03-07T09:23:28;10.20;72.10
16347;DHT22;8283;48.504;13.734;2024-03-07T09:25:47;10.30;72.10
16347;DHT22;8283;48.504;13.734;2024-03-07T09:28:06;10.30;72.00
16347;DHT22;8283;48.504;13.734;2024-03-07T09:30:27;10.40;72.20
16347;DHT22;8283;48.504;13.734;2024-03-07T09:32:47;10.40;72.00
16347;DHT22;8283;48.504;13.734;2024-03-07T09:35:08;10.50;71.90
16347;DHT22;8283;48.504;13.734;2024-03-07T09:37:31;10.60;71.60
16347;DHT22;8283;48.504;13.734;2024-03-07T09:39:50;10.60;71.30
16347;DHT22;8283;48.504;13.734;2024-03-07T09:42:12;10.70;71.40
16347;DHT22;8283;48.504;13.734;2024-03-07T09:44:35;10.70;71.50
16347;DHT22;8283;48.504;13.734;2024-03-07T09:46:56;10.80;71.70
16347;DHT22;8283;48.504;13.734;2024-03-07T09:49:18;10.80;71.70
16347;DHT22;8283;48.504;13.734;2024-03-07T09:51:38;10.90;71.70
16347;DHT22;8283;48.504;13.734;2024-03-07T09:53:58;11.00;71.70
16347;DHT22;8283;48.504;13.734;2024-03-07T09:56:21;11.10;71.70
16347;DHT22;8283;48.504;13.734;2024-03-07T09:58:41;11.20;71.70
16347;DHT22;8283;48.504;13.734;2024-03-07T10:01:02;11.20;71.40
16347;DHT22;8283;48.504;13.734;2024-03-07T10:03:25;11.30;71.30
16347;DHT22;8283;48.504;13.734;2024-03-07T10:05:47;11.40;71.30
16347;DHT22;8283;48.504;13.734;2024-03-07T10:08:07;11.30;70.90
16347;DHT22;8283;48.504;13.734;2024-03-07T10:10:26;11.40;70.90
16347;DHT22;8283;48.504;13.734;2024-03-07T10:12:45;11.40;70.80
16347;DHT22;8283;48.504;13.734;2024-03-07T10:15:05;11.40;70.90
16347;DHT22;8283;48.504;13.734;2024-03-07T10:17:25;11.50;71.00
16347;DHT22;8283;48.504;13.734;2024-03-07T10:19:48;11.50;71.10
16347;DHT22;8283;48.504;13.734;2024-03-07T10:22:12;11.60;71.10
16347;DHT22;8283;48.504;13.734;2024-03-07T10:24:31;11.70;71.30
16347;DHT22;8283;48.504;13.734;2024-03-07T10:26:51;11.80;71.20
16347;DHT22;8283;48.504;13.734;2024-03-07T10:29:11;11.90;71.10
16347;DHT22;8283;48.504;13.734;2024-03-07T10:31:31;12.00;71.00
16347;DHT22;8283;48.504;13.734;2024-03-07T10:33:51;12.10;70.60
16347;DHT22;8283;48.504;13.734;2024-03-07T10:36:10;12.20;70.40
16347;DHT22;8283;48.504;13.734;2024-03-07T10:38:32;13.10;70.70
16347;DHT22;8283;48.504;13.734;2024-03-07T10:40:54;12.30;69.80
16347;DHT22;8283;48.504;13.734;2024-03-07T10:43:14;12.30;69.30
16347;DHT22;8283;48.504;13.734;2024-03-07T10:45:46;12.30;69.00
16347;DHT22;8283;48.504;13.734;2024-03-07T10:48:09;12.30;68.70
16347;DHT22;8283;48.504;13.734;2024-03-07T10:51:02;12.30;68.90
16347;DHT22;8283;48.504;13.734;2024-03-07T10:53:32;12.30;68.90
16347;DHT22;8283;48.504;13.734;2024-03-07T10:56:22;12.50;69.20
16347;DHT22;8283;48.504;13.734;2024-03-07T10:59:07;12.60;68.40
16347;DHT22;8283;48.504;13.734;2024-03-07T11:01:31;12.60;68.50
16347;DHT22;8283;48.504;13.734;2024-03-07T11:03:53;12.70;69.50
16347;DHT22;8283;48.504;13.734;2024-03-07T11:06:16;12.70;68.40
16347;DHT22;8283;48.504;13.734;2024-03-07T11:08:37;12.80;68.30
16347;DHT22;8283;48.504;13.734;2024-03-07T11:10:56;12.80;67.90
16347;DHT22;8283;48.504;13.734;2024-03-07T11:13:16;12.80;67.60
16347;DHT22;8283;48.504;13.734;2024-03-07T11:15:37;12.70;67.20
16347;DHT22;8283;48.504;13.734;2024-03-07T11:17:56;12.60;67.00
16347;DHT22;8283;48.504;13.734;2024-03-07T11:20:35;12.60;66.50
16347;DHT22;8283;48.504;13.734;2024-03-07T11:22:55;12.50;65.40
16347;DHT22;8283;48.504;13.734;2024-03-07T11:25:14;12.40;66.10
16347;DHT22;8283;48.504;13.734;2024-03-07T11:27:39;12.30;66.00
16347;DHT22;8283;48.504;13.734;2024-03-07T11:30:07;12.20;65.80
16347;DHT22;8283;48.504;13.734;2024-03-07T11:32:29;12.10;65.90
16347;DHT22;8283;48.504;13.734;2024-03-07T11:34:48;12.00;66.10
16347;DHT22;8283;48.504;13.734;2024-03-07T11:37:09;11.90;66.10
16347;DHT22;8283;48.504;13.734;2024-03-07T11:39:46;11.80;66.30
16347;DHT22;8283;48.504;13.734;2024-03-07T11:42:43;11.80;66.00
16347;DHT22;8283;48.504;13.734;2024-03-07T11:44:55;11.70;66.30
16347;DHT22;8283;48.504;13.734;2024-03-07T11:47:15;11.70;66.30
16347;DHT22;8283;48.504;13.734;2024-03-07T11:49:37;11.70;66.40
16347;DHT22;8283;48.504;13.734;2024-03-07T11:51:56;11.60;66.30
16347;DHT22;8283;48.504;13.734;2024-03-07T11:54:16;11.50;66.30
16347;DHT22;8283;48.504;13.734;2024-03-07T11:56:43;11.50;66.50
16347;DHT22;8283;48.504;13.734;2024-03-07T11:59:03;10.80;66.10
16347;DHT22;8283;48.504;13.734;2024-03-07T12:01:23;11.60;66.70
16347;DHT22;8283;48.504;13.734;2024-03-07T12:03:46;11.60;66.80
16347;DHT22;8283;48.504;13.734;2024-03-07T12:06:09;11.60;66.80
16347;DHT22;8283;48.504;13.734;2024-03-07T12:08:32;11.60;66.60
16347;DHT22;8283;48.504;13.734;2024-03-07T12:10:51;11.60;66.60
16347;DHT22;8283;48.504;13.734;2024-03-07T12:13:15;11.60;66.60
16347;DHT22;8283;48.504;13.734;2024-03-07T12:15:35;11.70;66.70
16347;DHT22;8283;48.504;13.734;2024-03-07T12:17:56;11.80;66.90
16347;DHT22;8283;48.504;13.734;2024-03-07T12:20:17;11.80;66.90
16347;DHT22;8283;48.504;13.734;2024-03-07T12:22:49;11.90;67.00
16347;DHT22;8283;48.504;13.734;2024-03-07T12:25:08;12.00;67.10
16347;DHT22;8283;48.504;13.734;2024-03-07T12:27:29;12.10;67.10
16347;DHT22;8283;48.504;13.734;2024-03-07T12:29:48;12.20;66.50
16347;DHT22;8283;48.504;13.734;2024-03-07T12:32:12;12.20;66.80
16347;DHT22;8283;48.504;13.734;2024-03-07T12:34:33;12.20;66.50
16347;DHT22;8283;48.504;13.734;2024-03-07T12:36:56;11.60;65.90
16347;DHT22;8283;48.504;13.734;2024-03-07T12:39:22;12.20;66.00
16347;DHT22;8283;48.504;13.734;2024-03-07T12:41:45;11.60;65.10
16347;DHT22;8283;48.504;13.734;2024-03-07T12:44:05;12.00;65.90
16347;DHT22;8283;48.504;13.734;2024-03-07T12:46:24;12.00;65.90
16347;DHT22;8283;48.504;13.734;2024-03-07T12:48:44;12.00;66.10
16347;DHT22;8283;48.504;13.734;2024-03-07T12:51:04;12.00;66.10
16347;DHT22;8283;48.504;13.734;2024-03-07T12:53:23;12.10;66.00
16347;DHT22;8283;48.504;13.734;2024-03-07T12:55:44;12.10;66.00
16347;DHT22;8283;48.504;13.734;2024-03-07T12:58:04;12.20;66.10
16347;DHT22;8283;48.504;13.734;2024-03-07T13:00:24;12.20;65.90
16347;DHT22;8283;48.504;13.734;2024-03-07T13:02:43;12.20;65.60
16347;DHT22;8283;48.504;13.734;2024-03-07T13:05:04;12.20;65.20
16347;DHT22;8283;48.504;13.734;2024-03-07T13:07:23;12.20;65.10
16347;DHT22;8283;48.504;13.734;2024-03-07T13:09:42;12.20;65.10
16347;DHT22;8283;48.504;13.734;2024-03-07T13:12:03;12.10;64.90
16347;DHT22;8283;48.504;13.734;2024-03-07T13:14:23;12.10;64.80
16347;DHT22;8283;48.504;13.734;2024-03-07T13:16:42;12.00;64.70
16347;DHT22;8283;48.504;13.734;2024-03-07T13:19:02;12.00;64.90
16347;DHT22;8283;48.504;13.734;2024-03-07T13:21:23;12.00;64.70
16347;DHT22;8283;48.504;13.734;2024-03-07T13:23:44;11.90;64.50
16347;DHT22;8283;48.504;13.734;2024-03-07T13:26:03;11.90;64.10
16347;DHT22;8283;48.504;13.734;2024-03-07T13:28:28;11.80;64.00
16347;DHT22;8283;48.504;13.734;2024-03-07T13:30:48;11.70;64.20
16347;DHT22;8283;48.504;13.734;2024-03-07T13:33:08;11.70;64.40
16347;DHT22;8283;48.504;13.734;2024-03-07T13:35:29;11.70;64.10
16347;DHT22;8283;48.504;13.734;2024-03-07T13:37:50;11.60;64.10
16347;DHT22;8283;48.504;13.734;2024-03-07T13:40:10;11.60;63.90
16347;DHT22;8283;48.504;13.734;2024-03-07T13:42:42;11.50;63.90
16347;DHT22;8283;48.504;13.734;2024-03-07T13:45:01;11.50;64.00
16347;DHT22;8283;48.504;13.734;2024-03-07T13:47:20;11.50;64.00
16347;DHT22;8283;48.504;13.734;2024-03-07T13:49:40;11.60;64.20
16347;DHT22;8283;48.504;13.734;2024-03-07T13:52:01;11.60;64.30
16347;DHT22;8283;48.504;13.734;2024-03-07T13:54:33;11.60;64.00
16347;DHT22;8283;48.504;13.734;2024-03-07T13:57:15;11.60;63.90
16347;DHT22;8283;48.504;13.734;2024-03-07T14:05:29;11.80;63.80
16347;DHT22;8283;48.504;13.734;2024-03-07T14:22:39;12.30;63.40
16347;DHT22;8283;48.504;13.734;2024-03-07T14:27:36;12.80;64.60
16347;DHT22;8283;48.504;13.734;2024-03-07T14:32:52;13.20;64.20
16347;DHT22;8283;48.504;13.734;2024-03-07T14:35:28;13.40;64.50
16347;DHT22;8283;48.504;13.734;2024-03-07T14:40:33;13.50;62.80
16347;DHT22;8283;48.504;13.734;2024-03-07T14:42:54;13.50;63.00
16347;DHT22;8283;48.504;13.734;2024-03-07T14:45:19;13.40;62.40
16347;DHT22;8283;48.504;13.734;2024-03-07T14:47:39;13.30;61.60
16347;DHT22;8283;48.504;13.734;2024-03-07T14:49:59;13.10;61.70
16347;DHT22;8283;48.504;13.734;2024-03-07T14:52:19;12.90;61.20
16347;DHT22;8283;48.504;13.734;2024-03-07T14:54:41;12.70;61.30
16347;DHT22;8283;48.504;13.734;2024-03-07T14:57:01;12.60;61.40
16347;DHT22;8283;48.504;13.734;2024-03-07T14:59:20;12.50;61.20
16347;DHT22;8283;48.504;13.734;2024-03-07T15:01:40;12.30;61.30
16347;DHT22;8283;48.504;13.734;2024-03-07T15:04:02;12.20;61.30
16347;DHT22;8283;48.504;13.734;2024-03-07T15:06:26;12.20;61.50
16347;DHT22;8283;48.504;13.734;2024-03-07T15:08:46;12.10;61.70
16347;DHT22;8283;48.504;13.734;2024-03-07T15:13:43;11.90;61.60
16347;DHT22;8283;48.504;13.734;2024-03-07T15:16:05;11.80;61.70
16347;DHT22;8283;48.504;13.734;2024-03-07T15:18:25;11.80;61.80
16347;DHT22;8283;48.504;13.734;2024-03-07T15:20:46;11.70;61.90
16347;DHT22;8283;48.504;13.734;2024-03-07T15:23:05;11.60;62.00
16347;DHT22;8283;48.504;13.734;2024-03-07T15:25:29;11.60;62.10
16347;DHT22;8283;48.504;13.734;2024-03-07T15:27:49;11.50;62.30
16347;DHT22;8283;48.504;13.734;2024-03-07T15:30:09;11.40;62.20